Terminal Aerodrome Forecast
Issued by NWS

Home | Current Version | Previous Version | Text Only | Print | Product List | Glossary On
Versions: 1 2 3 4 5 6 7 8 9 10 11 12
000
FTUS43 KGRB 280520
TAFMTW
TAF
KMTW 280520Z 2806/2906 VRB03KT P6SM SKC
     FM281500 17011KT P6SM SCT040
     FM282100 14007KT P6SM SCT040=

USA.gov is the U.S. government's official web portal to all federal, state and local government web resources and services.